sensor_id;sensor_type;location;lat;lon;timestamp;P1;durP1;ratioP1;P2;durP2;ratioP2
47335;SDS011;33068;51.990;5.926;2023-07-20T00:00:15;11.20;;;6.78;;
47335;SDS011;33068;51.990;5.926;2023-07-20T00:02:42;8.00;;;6.85;;
47335;SDS011;33068;51.990;5.926;2023-07-20T00:05:09;9.82;;;6.97;;
47335;SDS011;33068;51.990;5.926;2023-07-20T00:07:35;11.35;;;7.18;;
47335;SDS011;33068;51.990;5.926;2023-07-20T00:10:02;9.85;;;7.32;;
47335;SDS011;33068;51.990;5.926;2023-07-20T00:12:29;13.27;;;7.20;;
47335;SDS011;33068;51.990;5.926;2023-07-20T00:14:55;8.25;;;6.60;;
47335;SDS011;33068;51.990;5.926;2023-07-20T00:17:22;8.73;;;6.65;;
47335;SDS011;33068;51.990;5.926;2023-07-20T00:19:48;10.55;;;7.03;;
47335;SDS011;33068;51.990;5.926;2023-07-20T00:22:15;13.43;;;7.40;;
47335;SDS011;33068;51.990;5.926;2023-07-20T00:24:41;10.40;;;7.07;;
47335;SDS011;33068;51.990;5.926;2023-07-20T00:27:08;10.75;;;7.40;;
47335;SDS011;33068;51.990;5.926;2023-07-20T00:29:35;10.38;;;6.50;;
47335;SDS011;33068;51.990;5.926;2023-07-20T00:32:01;11.07;;;7.00;;
47335;SDS011;33068;51.990;5.926;2023-07-20T00:34:31;9.55;;;5.93;;
47335;SDS011;33068;51.990;5.926;2023-07-20T00:36:57;11.18;;;6.40;;
47335;SDS011;33068;51.990;5.926;2023-07-20T00:39:23;12.98;;;6.80;;
47335;SDS011;33068;51.990;5.926;2023-07-20T00:41:51;7.60;;;6.13;;
47335;SDS011;33068;51.990;5.926;2023-07-20T00:44:17;10.18;;;6.43;;
47335;SDS011;33068;51.990;5.926;2023-07-20T00:46:44;7.95;;;6.18;;
47335;SDS011;33068;51.990;5.926;2023-07-20T00:49:11;8.32;;;6.75;;
47335;SDS011;33068;51.990;5.926;2023-07-20T00:51:38;8.63;;;6.78;;
47335;SDS011;33068;51.990;5.926;2023-07-20T00:54:05;9.88;;;5.90;;
47335;SDS011;33068;51.990;5.926;2023-07-20T00:56:35;8.05;;;6.13;;
47335;SDS011;33068;51.990;5.926;2023-07-20T00:59:02;11.10;;;6.72;;
47335;SDS011;33068;51.990;5.926;2023-07-20T01:01:29;9.35;;;6.93;;
47335;SDS011;33068;51.990;5.926;2023-07-20T01:03:56;8.50;;;5.70;;
47335;SDS011;33068;51.990;5.926;2023-07-20T01:06:25;8.48;;;6.53;;
47335;SDS011;33068;51.990;5.926;2023-07-20T01:09:03;8.95;;;6.32;;
47335;SDS011;33068;51.990;5.926;2023-07-20T01:11:38;7.95;;;6.43;;
47335;SDS011;33068;51.990;5.926;2023-07-20T01:14:09;10.45;;;7.28;;
47335;SDS011;33068;51.990;5.926;2023-07-20T01:16:36;10.77;;;6.85;;
47335;SDS011;33068;51.990;5.926;2023-07-20T01:19:02;10.73;;;7.30;;
47335;SDS011;33068;51.990;5.926;2023-07-20T01:21:31;8.98;;;6.90;;
47335;SDS011;33068;51.990;5.926;2023-07-20T01:27:41;10.77;;;7.05;;
47335;SDS011;33068;51.990;5.926;2023-07-20T01:30:27;10.18;;;6.88;;
47335;SDS011;33068;51.990;5.926;2023-07-20T01:33:10;11.48;;;6.95;;
47335;SDS011;33068;51.990;5.926;2023-07-20T01:35:39;12.05;;;6.22;;
47335;SDS011;33068;51.990;5.926;2023-07-20T01:38:09;10.60;;;6.60;;
47335;SDS011;33068;51.990;5.926;2023-07-20T01:40:37;9.50;;;6.43;;
47335;SDS011;33068;51.990;5.926;2023-07-20T01:43:04;10.45;;;6.82;;
47335;SDS011;33068;51.990;5.926;2023-07-20T01:45:30;11.23;;;7.00;;
47335;SDS011;33068;51.990;5.926;2023-07-20T01:47:57;9.27;;;6.38;;
47335;SDS011;33068;51.990;5.926;2023-07-20T01:50:24;8.85;;;6.13;;
47335;SDS011;33068;51.990;5.926;2023-07-20T01:52:51;9.38;;;6.13;;
47335;SDS011;33068;51.990;5.926;2023-07-20T01:55:18;10.77;;;6.47;;
47335;SDS011;33068;51.990;5.926;2023-07-20T01:57:44;9.05;;;6.75;;
47335;SDS011;33068;51.990;5.926;2023-07-20T02:00:11;8.20;;;6.10;;
47335;SDS011;33068;51.990;5.926;2023-07-20T02:02:41;8.10;;;7.28;;
47335;SDS011;33068;51.990;5.926;2023-07-20T02:05:09;6.82;;;5.97;;
47335;SDS011;33068;51.990;5.926;2023-07-20T02:07:36;10.73;;;6.00;;
47335;SDS011;33068;51.990;5.926;2023-07-20T02:10:02;8.25;;;6.75;;
47335;SDS011;33068;51.990;5.926;2023-07-20T02:12:29;12.65;;;6.55;;
47335;SDS011;33068;51.990;5.926;2023-07-20T02:14:56;8.02;;;7.20;;
47335;SDS011;33068;51.990;5.926;2023-07-20T02:17:22;8.88;;;6.00;;
47335;SDS011;33068;51.990;5.926;2023-07-20T02:19:50;8.60;;;6.43;;
47335;SDS011;33068;51.990;5.926;2023-07-20T02:22:18;6.78;;;5.68;;
47335;SDS011;33068;51.990;5.926;2023-07-20T02:24:45;7.07;;;5.00;;
47335;SDS011;33068;51.990;5.926;2023-07-20T02:27:12;5.30;;;4.38;;
47335;SDS011;33068;51.990;5.926;2023-07-20T02:29:40;7.22;;;5.07;;
47335;SDS011;33068;51.990;5.926;2023-07-20T02:32:07;7.45;;;5.22;;
47335;SDS011;33068;51.990;5.926;2023-07-20T02:34:34;7.00;;;4.38;;
47335;SDS011;33068;51.990;5.926;2023-07-20T02:37:01;6.72;;;4.47;;
47335;SDS011;33068;51.990;5.926;2023-07-20T02:39:27;4.93;;;3.60;;
47335;SDS011;33068;51.990;5.926;2023-07-20T02:41:54;3.90;;;3.60;;
47335;SDS011;33068;51.990;5.926;2023-07-20T02:44:21;4.13;;;3.10;;
47335;SDS011;33068;51.990;5.926;2023-07-20T02:46:47;3.60;;;2.65;;
47335;SDS011;33068;51.990;5.926;2023-07-20T02:49:15;4.40;;;2.40;;
47335;SDS011;33068;51.990;5.926;2023-07-20T02:51:42;4.55;;;2.92;;
47335;SDS011;33068;51.990;5.926;2023-07-20T02:54:09;4.63;;;2.60;;
47335;SDS011;33068;51.990;5.926;2023-07-20T02:56:35;4.10;;;2.88;;
47335;SDS011;33068;51.990;5.926;2023-07-20T02:59:02;3.15;;;2.85;;
47335;SDS011;33068;51.990;5.926;2023-07-20T03:01:29;4.43;;;3.10;;
47335;SDS011;33068;51.990;5.926;2023-07-20T03:03:56;7.85;;;2.97;;
47335;SDS011;33068;51.990;5.926;2023-07-20T03:06:22;3.47;;;2.88;;
47335;SDS011;33068;51.990;5.926;2023-07-20T03:08:49;6.88;;;3.20;;
47335;SDS011;33068;51.990;5.926;2023-07-20T03:11:17;4.10;;;3.50;;
47335;SDS011;33068;51.990;5.926;2023-07-20T03:13:44;3.08;;;2.78;;
47335;SDS011;33068;51.990;5.926;2023-07-20T03:16:14;3.53;;;3.13;;
47335;SDS011;33068;51.990;5.926;2023-07-20T03:18:44;4.10;;;3.20;;
47335;SDS011;33068;51.990;5.926;2023-07-20T03:21:11;3.03;;;2.70;;
47335;SDS011;33068;51.990;5.926;2023-07-20T03:23:37;2.78;;;2.58;;
47335;SDS011;33068;51.990;5.926;2023-07-20T03:26:04;4.10;;;2.95;;
47335;SDS011;33068;51.990;5.926;2023-07-20T03:28:33;3.95;;;2.97;;
47335;SDS011;33068;51.990;5.926;2023-07-20T03:31:00;3.60;;;3.20;;
47335;SDS011;33068;51.990;5.926;2023-07-20T03:33:29;2.90;;;2.63;;
47335;SDS011;33068;51.990;5.926;2023-07-20T03:35:57;5.20;;;2.75;;
47335;SDS011;33068;51.990;5.926;2023-07-20T03:38:24;2.47;;;2.28;;
47335;SDS011;33068;51.990;5.926;2023-07-20T03:40:52;2.80;;;2.60;;
47335;SDS011;33068;51.990;5.926;2023-07-20T03:43:19;2.85;;;2.65;;
47335;SDS011;33068;51.990;5.926;2023-07-20T03:45:46;4.68;;;2.90;;
47335;SDS011;33068;51.990;5.926;2023-07-20T03:48:13;4.00;;;2.70;;
47335;SDS011;33068;51.990;5.926;2023-07-20T03:50:41;6.00;;;2.38;;
47335;SDS011;33068;51.990;5.926;2023-07-20T03:53:08;3.78;;;3.40;;
47335;SDS011;33068;51.990;5.926;2023-07-20T03:55:34;3.53;;;3.20;;
47335;SDS011;33068;51.990;5.926;2023-07-20T03:58:01;3.00;;;2.63;;
47335;SDS011;33068;51.990;5.926;2023-07-20T04:00:27;3.42;;;3.13;;
47335;SDS011;33068;51.990;5.926;2023-07-20T04:02:53;3.42;;;3.00;;
47335;SDS011;33068;51.990;5.926;2023-07-20T04:05:20;6.13;;;3.13;;
47335;SDS011;33068;51.990;5.926;2023-07-20T04:07:47;4.07;;;3.03;;
47335;SDS011;33068;51.990;5.926;2023-07-20T04:10:13;4.05;;;3.60;;
47335;SDS011;33068;51.990;5.926;2023-07-20T04:12:40;4.78;;;3.22;;
47335;SDS011;33068;51.990;5.926;2023-07-20T04:15:07;3.50;;;3.20;;
47335;SDS011;33068;51.990;5.926;2023-07-20T04:17:34;4.15;;;3.30;;
47335;SDS011;33068;51.990;5.926;2023-07-20T04:20:00;3.67;;;3.33;;
47335;SDS011;33068;51.990;5.926;2023-07-20T04:22:28;3.88;;;3.42;;
47335;SDS011;33068;51.990;5.926;2023-07-20T04:24:55;3.72;;;3.38;;
47335;SDS011;33068;51.990;5.926;2023-07-20T04:27:21;5.22;;;3.60;;
47335;SDS011;33068;51.990;5.926;2023-07-20T04:29:48;4.10;;;3.20;;
47335;SDS011;33068;51.990;5.926;2023-07-20T04:32:14;3.00;;;2.80;;
47335;SDS011;33068;51.990;5.926;2023-07-20T04:34:41;3.80;;;3.50;;
47335;SDS011;33068;51.990;5.926;2023-07-20T04:37:07;4.50;;;4.10;;
47335;SDS011;33068;51.990;5.926;2023-07-20T04:39:34;3.65;;;3.30;;
47335;SDS011;33068;51.990;5.926;2023-07-20T04:42:06;3.75;;;3.45;;
47335;SDS011;33068;51.990;5.926;2023-07-20T04:44:32;3.78;;;3.45;;
47335;SDS011;33068;51.990;5.926;2023-07-20T04:46:59;3.72;;;3.40;;
47335;SDS011;33068;51.990;5.926;2023-07-20T04:49:26;4.00;;;3.30;;
47335;SDS011;33068;51.990;5.926;2023-07-20T04:51:52;4.13;;;3.22;;
47335;SDS011;33068;51.990;5.926;2023-07-20T04:54:20;3.72;;;3.20;;
47335;SDS011;33068;51.990;5.926;2023-07-20T04:56:47;3.63;;;2.65;;
47335;SDS011;33068;51.990;5.926;2023-07-20T04:59:14;2.53;;;2.38;;
47335;SDS011;33068;51.990;5.926;2023-07-20T05:01:40;2.70;;;2.50;;
47335;SDS011;33068;51.990;5.926;2023-07-20T05:04:07;3.08;;;2.83;;
47335;SDS011;33068;51.990;5.926;2023-07-20T05:06:33;3.10;;;2.80;;
47335;SDS011;33068;51.990;5.926;2023-07-20T05:09:00;2.00;;;1.90;;
47335;SDS011;33068;51.990;5.926;2023-07-20T05:11:26;4.20;;;2.15;;
47335;SDS011;33068;51.990;5.926;2023-07-20T05:13:53;2.92;;;2.60;;
47335;SDS011;33068;51.990;5.926;2023-07-20T05:16:20;2.75;;;2.55;;
47335;SDS011;33068;51.990;5.926;2023-07-20T05:18:47;3.20;;;2.65;;
47335;SDS011;33068;51.990;5.926;2023-07-20T05:21:13;2.75;;;2.33;;
47335;SDS011;33068;51.990;5.926;2023-07-20T05:23:39;4.10;;;2.03;;
47335;SDS011;33068;51.990;5.926;2023-07-20T05:26:06;2.42;;;2.13;;
47335;SDS011;33068;51.990;5.926;2023-07-20T05:28:32;1.70;;;1.60;;
47335;SDS011;33068;51.990;5.926;2023-07-20T05:30:59;1.50;;;1.40;;
47335;SDS011;33068;51.990;5.926;2023-07-20T05:33:28;1.23;;;1.15;;
47335;SDS011;33068;51.990;5.926;2023-07-20T05:35:55;2.05;;;1.83;;
47335;SDS011;33068;51.990;5.926;2023-07-20T05:38:21;2.13;;;1.92;;
47335;SDS011;33068;51.990;5.926;2023-07-20T05:40:48;2.17;;;1.75;;
47335;SDS011;33068;51.990;5.926;2023-07-20T05:43:14;1.83;;;1.70;;
47335;SDS011;33068;51.990;5.926;2023-07-20T05:45:43;2.30;;;1.90;;
47335;SDS011;33068;51.990;5.926;2023-07-20T05:48:11;1.23;;;1.08;;
47335;SDS011;33068;51.990;5.926;2023-07-20T05:50:39;1.73;;;1.42;;
47335;SDS011;33068;51.990;5.926;2023-07-20T05:53:08;2.65;;;1.50;;
47335;SDS011;33068;51.990;5.926;2023-07-20T05:55:35;0.98;;;0.90;;
47335;SDS011;33068;51.990;5.926;2023-07-20T05:58:01;2.67;;;1.00;;
47335;SDS011;33068;51.990;5.926;2023-07-20T06:00:29;1.17;;;0.80;;
47335;SDS011;33068;51.990;5.926;2023-07-20T06:02:55;1.30;;;0.88;;
47335;SDS011;33068;51.990;5.926;2023-07-20T06:05:22;2.50;;;0.60;;
47335;SDS011;33068;51.990;5.926;2023-07-20T06:07:49;0.40;;;0.30;;
47335;SDS011;33068;51.990;5.926;2023-07-20T06:10:16;0.88;;;0.50;;
47335;SDS011;33068;51.990;5.926;2023-07-20T06:12:42;2.92;;;0.60;;
47335;SDS011;33068;51.990;5.926;2023-07-20T06:15:23;0.40;;;0.40;;
47335;SDS011;33068;51.990;5.926;2023-07-20T06:17:51;1.13;;;0.35;;
47335;SDS011;33068;51.990;5.926;2023-07-20T06:20:17;0.57;;;0.28;;
47335;SDS011;33068;51.990;5.926;2023-07-20T06:22:44;3.40;;;0.90;;
47335;SDS011;33068;51.990;5.926;2023-07-20T06:25:12;0.85;;;0.50;;
47335;SDS011;33068;51.990;5.926;2023-07-20T06:27:38;0.80;;;0.30;;
47335;SDS011;33068;51.990;5.926;2023-07-20T06:30:05;0.52;;;0.30;;
47335;SDS011;33068;51.990;5.926;2023-07-20T06:32:32;1.58;;;0.30;;
47335;SDS011;33068;51.990;5.926;2023-07-20T06:34:59;1.73;;;0.30;;
47335;SDS011;33068;51.990;5.926;2023-07-20T06:37:25;0.68;;;0.30;;
47335;SDS011;33068;51.990;5.926;2023-07-20T06:39:51;1.33;;;0.40;;
47335;SDS011;33068;51.990;5.926;2023-07-20T06:42:18;0.35;;;0.30;;
47335;SDS011;33068;51.990;5.926;2023-07-20T06:44:45;1.17;;;0.35;;
47335;SDS011;33068;51.990;5.926;2023-07-20T06:47:11;1.73;;;0.20;;
47335;SDS011;33068;51.990;5.926;2023-07-20T06:49:38;0.32;;;0.30;;
47335;SDS011;33068;51.990;5.926;2023-07-20T06:52:05;0.80;;;0.30;;
47335;SDS011;33068;51.990;5.926;2023-07-20T06:54:32;1.17;;;0.20;;
47335;SDS011;33068;51.990;5.926;2023-07-20T06:56:58;0.20;;;0.20;;
47335;SDS011;33068;51.990;5.926;2023-07-20T06:59:25;1.05;;;0.20;;
47335;SDS011;33068;51.990;5.926;2023-07-20T07:01:52;0.60;;;0.35;;
47335;SDS011;33068;51.990;5.926;2023-07-20T07:04:18;1.35;;;0.40;;
47335;SDS011;33068;51.990;5.926;2023-07-20T07:06:45;0.70;;;0.30;;
47335;SDS011;33068;51.990;5.926;2023-07-20T07:09:11;1.98;;;0.30;;
47335;SDS011;33068;51.990;5.926;2023-07-20T07:11:38;1.33;;;0.20;;
47335;SDS011;33068;51.990;5.926;2023-07-20T07:14:04;0.88;;;0.30;;
47335;SDS011;33068;51.990;5.926;2023-07-20T07:16:31;1.10;;;0.52;;
47335;SDS011;33068;51.990;5.926;2023-07-20T07:18:58;0.55;;;0.20;;
47335;SDS011;33068;51.990;5.926;2023-07-20T07:21:24;2.05;;;0.20;;
47335;SDS011;33068;51.990;5.926;2023-07-20T07:23:51;1.00;;;0.20;;
47335;SDS011;33068;51.990;5.926;2023-07-20T07:26:18;0.40;;;0.10;;
47335;SDS011;33068;51.990;5.926;2023-07-20T07:28:45;0.55;;;0.20;;
47335;SDS011;33068;51.990;5.926;2023-07-20T07:31:11;0.70;;;0.20;;
47335;SDS011;33068;51.990;5.926;2023-07-20T07:33:38;0.55;;;0.20;;
47335;SDS011;33068;51.990;5.926;2023-07-20T07:36:05;1.70;;;0.20;;
47335;SDS011;33068;51.990;5.926;2023-07-20T07:38:31;1.00;;;0.28;;
47335;SDS011;33068;51.990;5.926;2023-07-20T07:40:58;3.90;;;0.20;;
47335;SDS011;33068;51.990;5.926;2023-07-20T07:43:25;1.75;;;0.20;;
47335;SDS011;33068;51.990;5.926;2023-07-20T07:45:53;0.25;;;0.20;;
47335;SDS011;33068;51.990;5.926;2023-07-20T07:48:20;0.43;;;0.28;;
47335;SDS011;33068;51.990;5.926;2023-07-20T07:50:48;1.13;;;0.30;;
47335;SDS011;33068;51.990;5.926;2023-07-20T07:53:15;0.68;;;0.20;;
47335;SDS011;33068;51.990;5.926;2023-07-20T07:55:41;0.20;;;0.10;;
47335;SDS011;33068;51.990;5.926;2023-07-20T07:58:07;0.38;;;0.20;;
47335;SDS011;33068;51.990;5.926;2023-07-20T08:00:34;0.20;;;0.10;;
47335;SDS011;33068;51.990;5.926;2023-07-20T08:03:01;0.40;;;0.20;;
47335;SDS011;33068;51.990;5.926;2023-07-20T08:05:27;1.75;;;0.63;;
47335;SDS011;33068;51.990;5.926;2023-07-20T08:07:54;1.00;;;0.20;;
47335;SDS011;33068;51.990;5.926;2023-07-20T08:10:21;1.67;;;0.10;;
47335;SDS011;33068;51.990;5.926;2023-07-20T08:12:48;1.70;;;0.20;;
47335;SDS011;33068;51.990;5.926;2023-07-20T08:15:14;0.10;;;0.10;;
47335;SDS011;33068;51.990;5.926;2023-07-20T08:17:41;0.73;;;0.10;;
47335;SDS011;33068;51.990;5.926;2023-07-20T08:20:09;4.78;;;0.30;;
47335;SDS011;33068;51.990;5.926;2023-07-20T08:22:37;0.60;;;0.20;;
47335;SDS011;33068;51.990;5.926;2023-07-20T08:25:05;1.17;;;0.20;;
47335;SDS011;33068;51.990;5.926;2023-07-20T08:27:31;0.77;;;0.20;;
47335;SDS011;33068;51.990;5.926;2023-07-20T08:29:58;0.50;;;0.20;;
47335;SDS011;33068;51.990;5.926;2023-07-20T08:32:25;2.95;;;0.13;;
47335;SDS011;33068;51.990;5.926;2023-07-20T08:34:51;0.60;;;0.20;;
47335;SDS011;33068;51.990;5.926;2023-07-20T08:37:19;0.55;;;0.20;;
47335;SDS011;33068;51.990;5.926;2023-07-20T08:39:45;0.50;;;0.20;;
47335;SDS011;33068;51.990;5.926;2023-07-20T08:42:12;0.65;;;0.20;;
47335;SDS011;33068;51.990;5.926;2023-07-20T08:44:41;0.40;;;0.13;;
47335;SDS011;33068;51.990;5.926;2023-07-20T08:47:08;1.02;;;0.20;;
47335;SDS011;33068;51.990;5.926;2023-07-20T08:49:35;0.10;;;0.10;;
47335;SDS011;33068;51.990;5.926;2023-07-20T08:52:05;0.40;;;0.17;;
47335;SDS011;33068;51.990;5.926;2023-07-20T08:54:32;4.03;;;0.30;;
47335;SDS011;33068;51.990;5.926;2023-07-20T08:57:01;2.92;;;0.17;;
47335;SDS011;33068;51.990;5.926;2023-07-20T08:59:30;0.30;;;0.10;;
47335;SDS011;33068;51.990;5.926;2023-07-20T09:01:57;0.55;;;0.10;;
47335;SDS011;33068;51.990;5.926;2023-07-20T09:04:25;0.82;;;0.13;;
47335;SDS011;33068;51.990;5.926;2023-07-20T09:06:51;1.63;;;0.20;;
47335;SDS011;33068;51.990;5.926;2023-07-20T09:09:18;1.35;;;0.20;;
47335;SDS011;33068;51.990;5.926;2023-07-20T09:11:47;0.10;;;0.10;;
47335;SDS011;33068;51.990;5.926;2023-07-20T09:14:14;0.68;;;0.10;;
47335;SDS011;33068;51.990;5.926;2023-07-20T09:16:48;0.55;;;0.10;;
47335;SDS011;33068;51.990;5.926;2023-07-20T09:19:16;0.80;;;0.10;;
47335;SDS011;33068;51.990;5.926;2023-07-20T09:21:44;1.92;;;0.20;;
47335;SDS011;33068;51.990;5.926;2023-07-20T09:24:12;1.48;;;0.10;;
47335;SDS011;33068;51.990;5.926;2023-07-20T09:26:40;0.20;;;0.10;;
47335;SDS011;33068;51.990;5.926;2023-07-20T09:29:08;0.43;;;0.25;;
47335;SDS011;33068;51.990;5.926;2023-07-20T09:31:35;1.02;;;0.20;;
47335;SDS011;33068;51.990;5.926;2023-07-20T09:34:03;0.30;;;0.10;;
47335;SDS011;33068;51.990;5.926;2023-07-20T09:36:32;0.20;;;0.10;;
47335;SDS011;33068;51.990;5.926;2023-07-20T09:38:59;0.40;;;0.17;;
47335;SDS011;33068;51.990;5.926;2023-07-20T09:41:26;2.05;;;0.52;;
47335;SDS011;33068;51.990;5.926;2023-07-20T09:43:52;1.15;;;0.25;;
47335;SDS011;33068;51.990;5.926;2023-07-20T09:46:19;1.25;;;0.13;;
47335;SDS011;33068;51.990;5.926;2023-07-20T09:48:51;0.43;;;0.20;;
47335;SDS011;33068;51.990;5.926;2023-07-20T09:51:19;0.95;;;0.20;;
47335;SDS011;33068;51.990;5.926;2023-07-20T09:53:47;0.52;;;0.10;;
47335;SDS011;33068;51.990;5.926;2023-07-20T09:56:15;0.43;;;0.10;;
47335;SDS011;33068;51.990;5.926;2023-07-20T09:58:45;0.38;;;0.30;;
47335;SDS011;33068;51.990;5.926;2023-07-20T10:01:12;0.63;;;0.10;;
47335;SDS011;33068;51.990;5.926;2023-07-20T10:03:43;0.60;;;0.15;;
47335;SDS011;33068;51.990;5.926;2023-07-20T10:06:12;0.30;;;0.20;;
47335;SDS011;33068;51.990;5.926;2023-07-20T10:08:43;1.75;;;0.15;;
47335;SDS011;33068;51.990;5.926;2023-07-20T10:11:13;0.55;;;0.20;;
47335;SDS011;33068;51.990;5.926;2023-07-20T10:13:43;1.02;;;0.20;;
47335;SDS011;33068;51.990;5.926;2023-07-20T10:16:12;0.73;;;0.30;;
47335;SDS011;33068;51.990;5.926;2023-07-20T10:18:49;0.50;;;0.20;;
47335;SDS011;33068;51.990;5.926;2023-07-20T10:21:20;2.55;;;0.20;;
47335;SDS011;33068;51.990;5.926;2023-07-20T10:23:49;0.80;;;0.30;;
47335;SDS011;33068;51.990;5.926;2023-07-20T10:26:15;1.20;;;0.30;;
47335;SDS011;33068;51.990;5.926;2023-07-20T10:28:42;1.20;;;0.20;;
47335;SDS011;33068;51.990;5.926;2023-07-20T10:31:09;0.43;;;0.30;;
47335;SDS011;33068;51.990;5.926;2023-07-20T10:33:37;2.25;;;0.30;;
47335;SDS011;33068;51.990;5.926;2023-07-20T10:36:04;0.50;;;0.20;;
47335;SDS011;33068;51.990;5.926;2023-07-20T10:38:40;1.95;;;0.30;;
47335;SDS011;33068;51.990;5.926;2023-07-20T10:41:18;0.30;;;0.30;;
47335;SDS011;33068;51.990;5.926;2023-07-20T10:43:45;0.93;;;0.30;;
47335;SDS011;33068;51.990;5.926;2023-07-20T10:46:12;0.55;;;0.20;;
47335;SDS011;33068;51.990;5.926;2023-07-20T10:48:58;0.50;;;0.20;;
47335;SDS011;33068;51.990;5.926;2023-07-20T10:51:25;1.75;;;0.22;;
47335;SDS011;33068;51.990;5.926;2023-07-20T10:53:52;0.63;;;0.43;;
47335;SDS011;33068;51.990;5.926;2023-07-20T10:56:21;0.55;;;0.22;;
47335;SDS011;33068;51.990;5.926;2023-07-20T10:58:48;1.35;;;0.30;;
47335;SDS011;33068;51.990;5.926;2023-07-20T11:01:16;1.30;;;0.20;;
47335;SDS011;33068;51.990;5.926;2023-07-20T11:03:43;0.40;;;0.28;;
47335;SDS011;33068;51.990;5.926;2023-07-20T11:06:31;0.10;;;0.10;;
47335;SDS011;33068;51.990;5.926;2023-07-20T11:09:06;0.73;;;0.20;;
47335;SDS011;33068;51.990;5.926;2023-07-20T11:11:37;1.13;;;0.52;;
47335;SDS011;33068;51.990;5.926;2023-07-20T11:14:04;1.98;;;0.90;;
47335;SDS011;33068;51.990;5.926;2023-07-20T11:16:35;0.70;;;0.32;;
47335;SDS011;33068;51.990;5.926;2023-07-20T11:19:04;0.77;;;0.30;;
47335;SDS011;33068;51.990;5.926;2023-07-20T11:21:35;0.57;;;0.40;;
47335;SDS011;33068;51.990;5.926;2023-07-20T11:24:04;0.63;;;0.40;;
47335;SDS011;33068;51.990;5.926;2023-07-20T11:26:39;0.40;;;0.30;;
47335;SDS011;33068;51.990;5.926;2023-07-20T11:29:06;0.55;;;0.30;;
47335;SDS011;33068;51.990;5.926;2023-07-20T11:31:34;0.70;;;0.20;;
47335;SDS011;33068;51.990;5.926;2023-07-20T11:34:01;0.73;;;0.30;;
47335;SDS011;33068;51.990;5.926;2023-07-20T11:36:28;2.85;;;0.43;;
47335;SDS011;33068;51.990;5.926;2023-07-20T11:38:54;1.95;;;0.30;;
47335;SDS011;33068;51.990;5.926;2023-07-20T11:41:24;0.52;;;0.20;;
47335;SDS011;33068;51.990;5.926;2023-07-20T11:43:52;0.40;;;0.30;;
47335;SDS011;33068;51.990;5.926;2023-07-20T11:46:19;0.73;;;0.35;;
47335;SDS011;33068;51.990;5.926;2023-07-20T11:48:46;0.77;;;0.20;;
47335;SDS011;33068;51.990;5.926;2023-07-20T11:51:15;0.95;;;0.30;;
47335;SDS011;33068;51.990;5.926;2023-07-20T11:53:42;0.93;;;0.40;;
47335;SDS011;33068;51.990;5.926;2023-07-20T11:56:10;2.35;;;0.68;;
47335;SDS011;33068;51.990;5.926;2023-07-20T11:58:41;0.40;;;0.32;;
47335;SDS011;33068;51.990;5.926;2023-07-20T12:01:09;0.52;;;0.38;;
47335;SDS011;33068;51.990;5.926;2023-07-20T12:03:36;0.25;;;0.15;;
47335;SDS011;33068;51.990;5.926;2023-07-20T12:06:06;0.50;;;0.30;;
47335;SDS011;33068;51.990;5.926;2023-07-20T12:08:33;1.00;;;0.30;;
47335;SDS011;33068;51.990;5.926;2023-07-20T12:11:00;1.85;;;0.32;;
47335;SDS011;33068;51.990;5.926;2023-07-20T12:13:35;1.67;;;0.38;;
47335;SDS011;33068;51.990;5.926;2023-07-20T12:18:35;1.38;;;0.30;;
47335;SDS011;33068;51.990;5.926;2023-07-20T12:21:01;1.77;;;0.50;;
47335;SDS011;33068;51.990;5.926;2023-07-20T12:23:34;0.90;;;0.50;;
47335;SDS011;33068;51.990;5.926;2023-07-20T12:26:01;0.38;;;0.20;;
47335;SDS011;33068;51.990;5.926;2023-07-20T12:28:28;1.20;;;0.30;;
47335;SDS011;33068;51.990;5.926;2023-07-20T12:30:55;0.32;;;0.30;;
47335;SDS011;33068;51.990;5.926;2023-07-20T12:33:22;0.57;;;0.20;;
47335;SDS011;33068;51.990;5.926;2023-07-20T12:35:49;0.85;;;0.30;;
47335;SDS011;33068;51.990;5.926;2023-07-20T12:38:16;1.23;;;0.40;;
47335;SDS011;33068;51.990;5.926;2023-07-20T12:40:43;1.65;;;0.32;;
47335;SDS011;33068;51.990;5.926;2023-07-20T12:43:09;4.22;;;0.25;;
47335;SDS011;33068;51.990;5.926;2023-07-20T12:45:36;0.30;;;0.20;;
47335;SDS011;33068;51.990;5.926;2023-07-20T12:48:04;0.43;;;0.28;;
47335;SDS011;33068;51.990;5.926;2023-07-20T12:50:31;0.35;;;0.20;;
47335;SDS011;33068;51.990;5.926;2023-07-20T12:52:58;0.20;;;0.20;;
47335;SDS011;33068;51.990;5.926;2023-07-20T12:55:25;1.08;;;0.25;;
47335;SDS011;33068;51.990;5.926;2023-07-20T12:57:51;2.88;;;0.28;;
47335;SDS011;33068;51.990;5.926;2023-07-20T13:00:18;0.45;;;0.22;;
47335;SDS011;33068;51.990;5.926;2023-07-20T13:02:45;0.93;;;0.30;;
47335;SDS011;33068;51.990;5.926;2023-07-20T13:05:11;0.93;;;0.30;;
47335;SDS011;33068;51.990;5.926;2023-07-20T13:07:38;0.38;;;0.17;;
47335;SDS011;33068;51.990;5.926;2023-07-20T13:10:06;0.30;;;0.15;;
47335;SDS011;33068;51.990;5.926;2023-07-20T13:12:34;2.10;;;0.25;;
47335;SDS011;33068;51.990;5.926;2023-07-20T13:15:01;0.20;;;0.20;;
47335;SDS011;33068;51.990;5.926;2023-07-20T13:17:31;1.85;;;0.15;;
47335;SDS011;33068;51.990;5.926;2023-07-20T13:19:58;0.20;;;0.20;;
47335;SDS011;33068;51.990;5.926;2023-07-20T13:22:25;0.95;;;0.10;;
47335;SDS011;33068;51.990;5.926;2023-07-20T13:24:52;0.40;;;0.20;;
47335;SDS011;33068;51.990;5.926;2023-07-20T13:27:19;1.95;;;0.22;;
47335;SDS011;33068;51.990;5.926;2023-07-20T13:29:46;1.50;;;0.40;;
47335;SDS011;33068;51.990;5.926;2023-07-20T13:32:13;1.15;;;0.10;;
47335;SDS011;33068;51.990;5.926;2023-07-20T13:34:40;1.15;;;0.15;;
47335;SDS011;33068;51.990;5.926;2023-07-20T13:37:07;1.45;;;0.10;;
47335;SDS011;33068;51.990;5.926;2023-07-20T13:39:35;1.35;;;0.20;;
47335;SDS011;33068;51.990;5.926;2023-07-20T13:42:02;1.10;;;0.30;;
47335;SDS011;33068;51.990;5.926;2023-07-20T13:44:31;0.30;;;0.15;;
47335;SDS011;33068;51.990;5.926;2023-07-20T13:46:58;0.95;;;0.25;;
47335;SDS011;33068;51.990;5.926;2023-07-20T13:49:25;0.40;;;0.30;;
47335;SDS011;33068;51.990;5.926;2023-07-20T13:51:51;1.52;;;0.20;;
47335;SDS011;33068;51.990;5.926;2023-07-20T13:54:19;1.13;;;0.22;;
47335;SDS011;33068;51.990;5.926;2023-07-20T13:56:46;0.30;;;0.20;;
47335;SDS011;33068;51.990;5.926;2023-07-20T13:59:12;1.85;;;0.25;;
47335;SDS011;33068;51.990;5.926;2023-07-20T14:01:40;1.08;;;0.50;;
47335;SDS011;33068;51.990;5.926;2023-07-20T14:04:06;2.30;;;0.30;;
47335;SDS011;33068;51.990;5.926;2023-07-20T14:06:33;1.10;;;0.47;;
47335;SDS011;33068;51.990;5.926;2023-07-20T14:09:00;0.75;;;0.30;;
47335;SDS011;33068;51.990;5.926;2023-07-20T14:11:27;1.13;;;0.65;;
47335;SDS011;33068;51.990;5.926;2023-07-20T14:13:53;0.30;;;0.20;;
47335;SDS011;33068;51.990;5.926;2023-07-20T14:16:20;1.55;;;0.28;;
47335;SDS011;33068;51.990;5.926;2023-07-20T14:18:47;1.48;;;0.30;;
47335;SDS011;33068;51.990;5.926;2023-07-20T14:21:14;0.38;;;0.22;;
47335;SDS011;33068;51.990;5.926;2023-07-20T14:23:41;0.93;;;0.28;;
47335;SDS011;33068;51.990;5.926;2023-07-20T14:26:07;0.40;;;0.20;;
47335;SDS011;33068;51.990;5.926;2023-07-20T14:28:34;2.17;;;0.40;;
47335;SDS011;33068;51.990;5.926;2023-07-20T14:31:01;2.33;;;0.90;;
47335;SDS011;33068;51.990;5.926;2023-07-20T14:33:27;1.45;;;0.40;;
47335;SDS011;33068;51.990;5.926;2023-07-20T14:35:54;0.65;;;0.30;;
47335;SDS011;33068;51.990;5.926;2023-07-20T14:38:21;1.38;;;0.40;;
47335;SDS011;33068;51.990;5.926;2023-07-20T14:40:48;2.10;;;0.20;;
47335;SDS011;33068;51.990;5.926;2023-07-20T14:43:14;0.20;;;0.20;;
47335;SDS011;33068;51.990;5.926;2023-07-20T14:45:40;0.30;;;0.20;;
47335;SDS011;33068;51.990;5.926;2023-07-20T14:48:07;1.23;;;0.20;;
47335;SDS011;33068;51.990;5.926;2023-07-20T14:50:35;1.42;;;0.15;;
47335;SDS011;33068;51.990;5.926;2023-07-20T14:53:02;1.30;;;0.30;;